Strona główna
METAR-TAF:

METAR-TAF

Lotnisko :

Washington, Indiana, Stany Zjednoczone

Szerokość geograficzna: 38-42-02N, Długość geograficzna: 087-07-47W, wysokość: 144 m

Aktualna obserwacja pogody

Raport powstał 20 minut temu, godzina 06:55 UTC
Wiatr 6 kt od północ
Temperatura 3°C
Wilgotność 100%
Ciśnienie 1013 hPa
Widzialność: 16.1 km
Zachmurzenie całkowite na wysokości 700 ft

METAR: KDCY 260655Z AUTO 01006KT 10SM OVC007 03/03 A2992 RMK AO2 T00310030

czas: 02:15 (07:15 UTC)


TAF: brakujący

Obserwacja i prognoza pogody dla ponad 4000 lotnisk (raport METAR i TAF).

Dostępne stacje oznaczono żółtymi i czerwonymi punktami na mapie.

Najedź kursorem aby zobaczyć nazwę stacji.

Kliknij aby zobaczyć obserwacje i prognozy pogody.

Aby zmienić mapę: kliknij na zielony przycisk z czarnym krzyżykiem, aby powiększyć; na zielony przycisk z myślnikiem, aby pomniejszyć; na zielone strzałki, aby przejść do map sąsiednich.


METAR-TAF: